sensor_id;sensor_type;location;lat;lon;timestamp;pressure;altitude;pressure_sealevel;temperature;humidity
62510;BME280;48558;48.242;11.654;2023-07-09T00:02:31;96623.00;;;16.87;100.00
62510;BME280;48558;48.242;11.654;2023-07-09T00:06:44;96608.53;;;16.83;100.00
62510;BME280;48558;48.242;11.654;2023-07-09T00:10:57;96611.28;;;16.78;100.00
62510;BME280;48558;48.242;11.654;2023-07-09T00:15:11;96619.88;;;16.74;100.00
62510;BME280;48558;48.242;11.654;2023-07-09T00:19:25;96610.44;;;16.66;100.00
62510;BME280;48558;48.242;11.654;2023-07-09T00:23:41;96617.44;;;16.56;100.00
62510;BME280;48558;48.242;11.654;2023-07-09T00:28:04;96613.81;;;16.50;100.00
62510;BME280;48558;48.242;11.654;2023-07-09T00:32:18;96618.53;;;16.38;100.00
62510;BME280;48558;48.242;11.654;2023-07-09T00:36:34;96621.41;;;16.44;100.00
62510;BME280;48558;48.242;11.654;2023-07-09T00:41:05;96624.28;;;16.29;100.00
62510;BME280;48558;48.242;11.654;2023-07-09T00:45:23;96627.31;;;16.26;100.00
62510;BME280;48558;48.242;11.654;2023-07-09T00:49:39;96624.03;;;16.27;100.00
62510;BME280;48558;48.242;11.654;2023-07-09T00:54:05;96634.91;;;16.25;100.00
62510;BME280;48558;48.242;11.654;2023-07-09T00:58:22;96636.38;;;16.21;100.00
62510;BME280;48558;48.242;11.654;2023-07-09T01:02:39;96635.06;;;16.16;100.00
62510;BME280;48558;48.242;11.654;2023-07-09T01:06:56;96633.31;;;16.19;100.00
62510;BME280;48558;48.242;11.654;2023-07-09T01:11:20;96637.31;;;16.12;100.00
62510;BME280;48558;48.242;11.654;2023-07-09T01:15:34;96640.72;;;16.02;100.00
62510;BME280;48558;48.242;11.654;2023-07-09T01:19:50;96647.31;;;15.99;100.00
62510;BME280;48558;48.242;11.654;2023-07-09T01:29:01;96651.22;;;15.87;100.00
62510;BME280;48558;48.242;11.654;2023-07-09T01:33:15;96655.47;;;15.82;100.00
62510;BME280;48558;48.242;11.654;2023-07-09T01:37:28;96656.22;;;15.83;100.00
62510;BME280;48558;48.242;11.654;2023-07-09T01:41:41;96644.03;;;15.80;100.00
62510;BME280;48558;48.242;11.654;2023-07-09T01:45:53;96648.63;;;15.83;100.00
62510;BME280;48558;48.242;11.654;2023-07-09T01:50:10;96642.03;;;15.81;100.00
62510;BME280;48558;48.242;11.654;2023-07-09T01:54:23;96648.56;;;15.77;100.00
62510;BME280;48558;48.242;11.654;2023-07-09T01:58:37;96647.75;;;15.71;100.00
62510;BME280;48558;48.242;11.654;2023-07-09T02:02:53;96651.28;;;15.72;100.00
62510;BME280;48558;48.242;11.654;2023-07-09T02:07:07;96649.75;;;15.71;100.00
62510;BME280;48558;48.242;11.654;2023-07-09T02:11:20;96658.88;;;15.71;100.00
62510;BME280;48558;48.242;11.654;2023-07-09T02:15:32;96659.59;;;15.66;100.00
62510;BME280;48558;48.242;11.654;2023-07-09T02:19:45;96660.81;;;15.65;100.00
62510;BME280;48558;48.242;11.654;2023-07-09T02:24:07;96651.91;;;15.61;100.00
62510;BME280;48558;48.242;11.654;2023-07-09T02:28:19;96660.50;;;15.58;100.00
62510;BME280;48558;48.242;11.654;2023-07-09T02:32:32;96654.84;;;15.52;100.00
62510;BME280;48558;48.242;11.654;2023-07-09T02:36:45;96663.13;;;15.47;100.00
62510;BME280;48558;48.242;11.654;2023-07-09T02:40:57;96666.09;;;15.43;100.00
62510;BME280;48558;48.242;11.654;2023-07-09T02:45:10;96653.34;;;15.37;100.00
62510;BME280;48558;48.242;11.654;2023-07-09T02:49:23;96678.94;;;15.41;100.00
62510;BME280;48558;48.242;11.654;2023-07-09T02:53:35;96674.06;;;15.36;100.00
62510;BME280;48558;48.242;11.654;2023-07-09T02:57:48;96679.16;;;15.37;100.00
62510;BME280;48558;48.242;11.654;2023-07-09T03:02:11;96689.03;;;15.38;100.00
62510;BME280;48558;48.242;11.654;2023-07-09T03:06:24;96688.84;;;15.42;100.00
62510;BME280;48558;48.242;11.654;2023-07-09T03:10:37;96691.72;;;15.47;100.00
62510;BME280;48558;48.242;11.654;2023-07-09T03:14:49;96695.00;;;15.46;100.00
62510;BME280;48558;48.242;11.654;2023-07-09T03:19:03;96684.91;;;15.48;100.00
62510;BME280;48558;48.242;11.654;2023-07-09T03:23:16;96691.44;;;15.45;100.00
62510;BME280;48558;48.242;11.654;2023-07-09T03:27:30;96698.72;;;15.43;100.00
62510;BME280;48558;48.242;11.654;2023-07-09T03:31:42;96688.97;;;15.33;100.00
62510;BME280;48558;48.242;11.654;2023-07-09T03:35:55;96713.72;;;15.45;100.00
62510;BME280;48558;48.242;11.654;2023-07-09T03:40:22;96710.09;;;15.39;100.00
62510;BME280;48558;48.242;11.654;2023-07-09T03:44:35;96711.03;;;15.36;100.00
62510;BME280;48558;48.242;11.654;2023-07-09T03:48:51;96707.09;;;15.43;100.00
62510;BME280;48558;48.242;11.654;2023-07-09T03:53:04;96709.44;;;15.44;100.00
62510;BME280;48558;48.242;11.654;2023-07-09T03:57:17;96707.84;;;15.58;100.00
62510;BME280;48558;48.242;11.654;2023-07-09T04:01:30;96714.09;;;15.53;100.00
62510;BME280;48558;48.242;11.654;2023-07-09T04:05:43;96712.38;;;15.55;100.00
62510;BME280;48558;48.242;11.654;2023-07-09T04:09:55;96718.09;;;15.66;100.00
62510;BME280;48558;48.242;11.654;2023-07-09T04:14:08;96722.84;;;15.81;100.00
62510;BME280;48558;48.242;11.654;2023-07-09T04:18:20;96716.69;;;15.97;100.00
62510;BME280;48558;48.242;11.654;2023-07-09T04:22:33;96718.91;;;16.13;100.00
62510;BME280;48558;48.242;11.654;2023-07-09T04:26:57;96713.47;;;16.24;100.00
62510;BME280;48558;48.242;11.654;2023-07-09T04:31:20;96711.34;;;16.39;100.00
62510;BME280;48558;48.242;11.654;2023-07-09T04:35:33;96718.28;;;16.49;100.00
62510;BME280;48558;48.242;11.654;2023-07-09T04:39:45;96714.41;;;16.61;100.00
62510;BME280;48558;48.242;11.654;2023-07-09T04:43:59;96716.31;;;16.75;100.00
62510;BME280;48558;48.242;11.654;2023-07-09T04:48:12;96736.59;;;17.01;100.00
62510;BME280;48558;48.242;11.654;2023-07-09T04:52:25;96727.13;;;17.25;100.00
62510;BME280;48558;48.242;11.654;2023-07-09T04:56:37;96736.16;;;17.45;100.00
62510;BME280;48558;48.242;11.654;2023-07-09T05:00:50;96728.47;;;17.71;100.00
62510;BME280;48558;48.242;11.654;2023-07-09T05:05:13;96729.84;;;17.92;100.00
62510;BME280;48558;48.242;11.654;2023-07-09T05:09:26;96731.72;;;18.12;100.00
62510;BME280;48558;48.242;11.654;2023-07-09T05:13:49;96730.28;;;18.33;100.00
62510;BME280;48558;48.242;11.654;2023-07-09T05:18:04;96722.72;;;18.45;100.00
62510;BME280;48558;48.242;11.654;2023-07-09T05:22:17;96733.97;;;18.78;100.00
62510;BME280;48558;48.242;11.654;2023-07-09T05:26:30;96740.88;;;19.16;100.00
62510;BME280;48558;48.242;11.654;2023-07-09T05:30:42;96731.19;;;19.56;100.00
62510;BME280;48558;48.242;11.654;2023-07-09T05:34:55;96741.56;;;19.94;100.00
62510;BME280;48558;48.242;11.654;2023-07-09T05:39:16;96739.16;;;20.20;97.45
62510;BME280;48558;48.242;11.654;2023-07-09T05:43:30;96742.66;;;20.48;94.51
62510;BME280;48558;48.242;11.654;2023-07-09T05:47:43;96743.47;;;20.84;92.44
62510;BME280;48558;48.242;11.654;2023-07-09T05:51:56;96751.75;;;21.06;90.54
62510;BME280;48558;48.242;11.654;2023-07-09T05:56:08;96756.72;;;21.30;88.43
62510;BME280;48558;48.242;11.654;2023-07-09T06:00:21;96754.25;;;21.51;82.59
62510;BME280;48558;48.242;11.654;2023-07-09T06:04:34;96759.31;;;21.82;79.59
62510;BME280;48558;48.242;11.654;2023-07-09T06:08:47;96756.03;;;22.26;71.99
62510;BME280;48558;48.242;11.654;2023-07-09T06:13:07;96768.31;;;22.47;68.12
62510;BME280;48558;48.242;11.654;2023-07-09T06:17:19;96767.28;;;22.88;64.98
62510;BME280;48558;48.242;11.654;2023-07-09T06:21:32;96769.09;;;23.04;62.99
62510;BME280;48558;48.242;11.654;2023-07-09T06:25:54;96779.44;;;23.33;60.88
62510;BME280;48558;48.242;11.654;2023-07-09T06:30:07;96768.88;;;23.52;60.26
62510;BME280;48558;48.242;11.654;2023-07-09T06:34:20;96766.44;;;23.43;59.36
62510;BME280;48558;48.242;11.654;2023-07-09T06:38:33;96745.19;;;23.87;57.00
62510;BME280;48558;48.242;11.654;2023-07-09T06:42:45;96768.13;;;24.09;57.31
62510;BME280;48558;48.242;11.654;2023-07-09T06:46:58;96775.09;;;24.35;55.49
62510;BME280;48558;48.242;11.654;2023-07-09T06:51:11;96763.91;;;24.42;54.55
62510;BME280;48558;48.242;11.654;2023-07-09T06:55:24;96763.56;;;24.46;53.88
62510;BME280;48558;48.242;11.654;2023-07-09T06:59:37;96765.94;;;24.68;53.95
62510;BME280;48558;48.242;11.654;2023-07-09T07:03:50;96765.16;;;24.67;53.91
62510;BME280;48558;48.242;11.654;2023-07-09T07:08:04;96759.78;;;25.03;52.19
62510;BME280;48558;48.242;11.654;2023-07-09T07:12:27;96771.16;;;25.44;51.70
62510;BME280;48558;48.242;11.654;2023-07-09T07:16:41;96762.25;;;25.40;52.66
62510;BME280;48558;48.242;11.654;2023-07-09T07:20:54;96753.28;;;25.70;49.27
62510;BME280;48558;48.242;11.654;2023-07-09T07:25:08;96765.50;;;25.86;50.25
62510;BME280;48558;48.242;11.654;2023-07-09T07:29:21;96763.41;;;26.07;48.89
62510;BME280;48558;48.242;11.654;2023-07-09T07:33:34;96745.03;;;26.21;49.43
62510;BME280;48558;48.242;11.654;2023-07-09T07:37:47;96765.94;;;26.46;48.97
62510;BME280;48558;48.242;11.654;2023-07-09T07:42:00;96757.47;;;26.54;47.58
62510;BME280;48558;48.242;11.654;2023-07-09T07:46:14;96751.09;;;27.04;44.38
62510;BME280;48558;48.242;11.654;2023-07-09T07:50:27;96754.56;;;27.33;46.89
62510;BME280;48558;48.242;11.654;2023-07-09T07:54:39;96751.97;;;27.42;45.87
62510;BME280;48558;48.242;11.654;2023-07-09T07:58:52;96749.66;;;28.39;43.68
62510;BME280;48558;48.242;11.654;2023-07-09T08:03:04;96759.81;;;28.80;41.81
62510;BME280;48558;48.242;11.654;2023-07-09T08:07:18;96748.06;;;28.76;45.35
62510;BME280;48558;48.242;11.654;2023-07-09T08:11:31;96751.53;;;29.46;44.25
62510;BME280;48558;48.242;11.654;2023-07-09T08:15:45;96749.31;;;30.53;41.99
62510;BME280;48558;48.242;11.654;2023-07-09T08:20:05;96748.78;;;30.81;38.38
62510;BME280;48558;48.242;11.654;2023-07-09T08:24:19;96748.34;;;31.46;36.50
62510;BME280;48558;48.242;11.654;2023-07-09T08:28:42;96747.66;;;31.38;38.48
62510;BME280;48558;48.242;11.654;2023-07-09T08:32:56;96743.06;;;31.42;38.46
62510;BME280;48558;48.242;11.654;2023-07-09T08:37:09;96747.72;;;32.10;39.14
62510;BME280;48558;48.242;11.654;2023-07-09T08:41:48;96744.47;;;33.00;35.11
62510;BME280;48558;48.242;11.654;2023-07-09T08:46:24;96741.50;;;33.07;36.48
62510;BME280;48558;48.242;11.654;2023-07-09T08:51:08;96744.50;;;32.81;35.03
62510;BME280;48558;48.242;11.654;2023-07-09T08:55:28;96740.44;;;33.12;32.84
62510;BME280;48558;48.242;11.654;2023-07-09T08:59:42;96748.78;;;33.49;34.31
62510;BME280;48558;48.242;11.654;2023-07-09T09:04:03;96738.63;;;33.76;33.42
62510;BME280;48558;48.242;11.654;2023-07-09T09:08:58;96741.53;;;34.49;33.36
62510;BME280;48558;48.242;11.654;2023-07-09T09:13:36;96734.75;;;34.24;34.42
62510;BME280;48558;48.242;11.654;2023-07-09T09:18:10;96742.00;;;34.04;36.02
62510;BME280;48558;48.242;11.654;2023-07-09T09:22:44;96735.91;;;33.69;34.36
62510;BME280;48558;48.242;11.654;2023-07-09T09:27:17;96739.44;;;33.58;34.55
62510;BME280;48558;48.242;11.654;2023-07-09T09:31:31;96744.41;;;34.92;32.89
62510;BME280;48558;48.242;11.654;2023-07-09T09:35:46;96745.00;;;35.11;33.02
62510;BME280;48558;48.242;11.654;2023-07-09T09:40:00;96742.22;;;35.02;33.59
62510;BME280;48558;48.242;11.654;2023-07-09T09:44:29;96751.88;;;35.51;32.51
62510;BME280;48558;48.242;11.654;2023-07-09T09:48:45;96720.13;;;35.04;32.21
62510;BME280;48558;48.242;11.654;2023-07-09T09:53:00;96729.66;;;35.86;28.47
62510;BME280;48558;48.242;11.654;2023-07-09T09:57:24;96735.41;;;34.97;34.07
62510;BME280;48558;48.242;11.654;2023-07-09T10:01:37;96724.38;;;34.19;29.29
62510;BME280;48558;48.242;11.654;2023-07-09T10:06:10;96722.16;;;34.59;29.95
62510;BME280;48558;48.242;11.654;2023-07-09T10:10:33;96732.28;;;35.70;32.54
62510;BME280;48558;48.242;11.654;2023-07-09T10:19:58;96722.75;;;35.56;33.19
62510;BME280;48558;48.242;11.654;2023-07-09T10:33:10;96723.72;;;37.02;29.32
62510;BME280;48558;48.242;11.654;2023-07-09T10:42:45;96724.00;;;37.19;27.37
62510;BME280;48558;48.242;11.654;2023-07-09T10:47:05;96727.84;;;36.62;26.53
62510;BME280;48558;48.242;11.654;2023-07-09T10:51:31;96726.25;;;37.21;28.38
62510;BME280;48558;48.242;11.654;2023-07-09T10:55:56;96730.34;;;37.29;27.15
62510;BME280;48558;48.242;11.654;2023-07-09T11:00:15;96726.03;;;36.80;30.45
62510;BME280;48558;48.242;11.654;2023-07-09T11:04:45;96716.22;;;37.47;29.96
62510;BME280;48558;48.242;11.654;2023-07-09T11:09:02;96709.41;;;37.29;25.14
62510;BME280;48558;48.242;11.654;2023-07-09T11:13:35;96711.72;;;37.19;28.52
62510;BME280;48558;48.242;11.654;2023-07-09T11:18:07;96702.56;;;37.61;29.11
62510;BME280;48558;48.242;11.654;2023-07-09T11:22:39;96693.50;;;37.80;26.67
62510;BME280;48558;48.242;11.654;2023-07-09T11:26:54;96694.91;;;37.02;29.92
62510;BME280;48558;48.242;11.654;2023-07-09T11:36:06;96700.22;;;38.66;26.61
62510;BME280;48558;48.242;11.654;2023-07-09T11:40:23;96690.34;;;38.01;29.68
62510;BME280;48558;48.242;11.654;2023-07-09T11:44:45;96698.66;;;35.96;28.58
62510;BME280;48558;48.242;11.654;2023-07-09T11:49:00;96682.69;;;36.78;27.24
62510;BME280;48558;48.242;11.654;2023-07-09T11:58:17;96665.59;;;38.53;26.31
62510;BME280;48558;48.242;11.654;2023-07-09T12:02:33;96660.59;;;38.53;28.51
62510;BME280;48558;48.242;11.654;2023-07-09T12:06:47;96652.94;;;38.31;23.77
62510;BME280;48558;48.242;11.654;2023-07-09T12:11:20;96657.53;;;38.09;26.16
62510;BME280;48558;48.242;11.654;2023-07-09T12:15:34;96656.66;;;39.05;24.49
62510;BME280;48558;48.242;11.654;2023-07-09T12:19:51;96650.47;;;38.97;25.48
62510;BME280;48558;48.242;11.654;2023-07-09T12:28:35;96629.66;;;39.14;24.40
62510;BME280;48558;48.242;11.654;2023-07-09T12:32:50;96634.41;;;38.79;24.08
62510;BME280;48558;48.242;11.654;2023-07-09T12:37:04;96626.06;;;39.00;27.40
62510;BME280;48558;48.242;11.654;2023-07-09T12:41:26;96620.00;;;38.65;24.36
62510;BME280;48558;48.242;11.654;2023-07-09T12:45:48;96613.09;;;38.43;25.25
62510;BME280;48558;48.242;11.654;2023-07-09T12:50:28;96625.28;;;39.29;24.48
62510;BME280;48558;48.242;11.654;2023-07-09T12:55:01;96609.06;;;37.00;25.81
62510;BME280;48558;48.242;11.654;2023-07-09T12:59:36;96602.69;;;38.09;25.84
62510;BME280;48558;48.242;11.654;2023-07-09T13:03:55;96591.44;;;38.57;26.67
62510;BME280;48558;48.242;11.654;2023-07-09T13:08:13;96594.56;;;38.05;28.01
62510;BME280;48558;48.242;11.654;2023-07-09T13:12:31;96607.84;;;38.53;25.67
62510;BME280;48558;48.242;11.654;2023-07-09T13:16:45;96597.38;;;38.46;23.03
62510;BME280;48558;48.242;11.654;2023-07-09T13:20:59;96598.97;;;39.23;24.42
62510;BME280;48558;48.242;11.654;2023-07-09T13:25:13;96601.13;;;38.48;26.86
62510;BME280;48558;48.242;11.654;2023-07-09T13:29:27;96577.19;;;38.61;22.34
62510;BME280;48558;48.242;11.654;2023-07-09T13:33:44;96597.88;;;39.46;23.24
62510;BME280;48558;48.242;11.654;2023-07-09T13:38:14;96595.00;;;38.56;25.58
62510;BME280;48558;48.242;11.654;2023-07-09T13:42:27;96586.38;;;36.19;27.78
62510;BME280;48558;48.242;11.654;2023-07-09T13:46:40;96585.75;;;34.70;27.54
62510;BME280;48558;48.242;11.654;2023-07-09T13:50:54;96583.06;;;34.95;27.46
62510;BME280;48558;48.242;11.654;2023-07-09T13:55:26;96588.09;;;35.76;28.80
62510;BME280;48558;48.242;11.654;2023-07-09T13:59:49;96584.53;;;34.85;30.48
62510;BME280;48558;48.242;11.654;2023-07-09T14:04:02;96588.63;;;35.61;28.66
62510;BME280;48558;48.242;11.654;2023-07-09T14:08:16;96581.94;;;36.92;25.15
62510;BME280;48558;48.242;11.654;2023-07-09T14:12:43;96574.50;;;37.00;25.40
62510;BME280;48558;48.242;11.654;2023-07-09T14:16:58;96581.25;;;37.18;28.49
62510;BME280;48558;48.242;11.654;2023-07-09T14:21:25;96571.63;;;37.14;26.27
62510;BME280;48558;48.242;11.654;2023-07-09T14:25:39;96571.38;;;37.89;24.85
62510;BME280;48558;48.242;11.654;2023-07-09T14:29:54;96565.66;;;38.32;26.24
62510;BME280;48558;48.242;11.654;2023-07-09T14:38:32;96570.66;;;38.32;23.93
62510;BME280;48558;48.242;11.654;2023-07-09T14:42:46;96561.88;;;38.43;26.46
62510;BME280;48558;48.242;11.654;2023-07-09T14:47:01;96556.94;;;37.76;23.23
62510;BME280;48558;48.242;11.654;2023-07-09T14:51:17;96557.59;;;38.73;24.92
62510;BME280;48558;48.242;11.654;2023-07-09T14:55:30;96555.66;;;38.78;23.85
62510;BME280;48558;48.242;11.654;2023-07-09T14:59:53;96552.88;;;39.42;24.34
62510;BME280;48558;48.242;11.654;2023-07-09T15:04:28;96546.91;;;39.54;24.05
62510;BME280;48558;48.242;11.654;2023-07-09T15:08:43;96535.91;;;38.59;24.40
62510;BME280;48558;48.242;11.654;2023-07-09T15:12:56;96545.38;;;38.75;25.96
62510;BME280;48558;48.242;11.654;2023-07-09T15:17:11;96541.91;;;38.63;23.42
62510;BME280;48558;48.242;11.654;2023-07-09T15:21:24;96525.88;;;38.31;24.99
62510;BME280;48558;48.242;11.654;2023-07-09T15:25:38;96526.84;;;38.96;24.57
62510;BME280;48558;48.242;11.654;2023-07-09T15:29:51;96527.97;;;39.04;22.83
62510;BME280;48558;48.242;11.654;2023-07-09T15:34:05;96522.56;;;38.52;25.17
62510;BME280;48558;48.242;11.654;2023-07-09T15:42:40;96525.00;;;39.65;22.93
62510;BME280;48558;48.242;11.654;2023-07-09T15:46:55;96529.44;;;39.68;24.00
62510;BME280;48558;48.242;11.654;2023-07-09T15:51:09;96515.47;;;38.84;23.34
62510;BME280;48558;48.242;11.654;2023-07-09T15:55:29;96515.38;;;38.82;25.09
62510;BME280;48558;48.242;11.654;2023-07-09T15:59:42;96509.22;;;38.74;25.09
62510;BME280;48558;48.242;11.654;2023-07-09T16:04:00;96520.75;;;38.16;26.39
62510;BME280;48558;48.242;11.654;2023-07-09T16:08:15;96500.84;;;38.96;23.84
62510;BME280;48558;48.242;11.654;2023-07-09T16:12:28;96501.75;;;37.54;25.90
62510;BME280;48558;48.242;11.654;2023-07-09T16:16:42;96506.72;;;38.82;22.05
62510;BME280;48558;48.242;11.654;2023-07-09T16:20:56;96516.41;;;39.51;24.42
62510;BME280;48558;48.242;11.654;2023-07-09T16:25:18;96503.41;;;40.01;21.68
62510;BME280;48558;48.242;11.654;2023-07-09T16:29:35;96502.09;;;38.03;25.53
62510;BME280;48558;48.242;11.654;2023-07-09T16:33:48;96502.88;;;39.89;23.30
62510;BME280;48558;48.242;11.654;2023-07-09T16:38:01;96487.97;;;38.99;23.56
62510;BME280;48558;48.242;11.654;2023-07-09T16:42:24;96494.97;;;37.90;23.38
62510;BME280;48558;48.242;11.654;2023-07-09T16:46:38;96489.38;;;38.08;23.57
62510;BME280;48558;48.242;11.654;2023-07-09T16:50:54;96493.66;;;36.21;27.00
62510;BME280;48558;48.242;11.654;2023-07-09T16:55:13;96493.75;;;35.97;26.06
62510;BME280;48558;48.242;11.654;2023-07-09T16:59:28;96499.13;;;36.28;25.08
62510;BME280;48558;48.242;11.654;2023-07-09T17:03:42;96490.13;;;36.73;26.88
62510;BME280;48558;48.242;11.654;2023-07-09T17:08:03;96488.28;;;35.78;27.83
62510;BME280;48558;48.242;11.654;2023-07-09T17:12:16;96489.63;;;36.26;27.44
62510;BME280;48558;48.242;11.654;2023-07-09T17:16:30;96482.06;;;36.57;27.90
62510;BME280;48558;48.242;11.654;2023-07-09T17:20:58;96488.09;;;36.75;26.63
62510;BME280;48558;48.242;11.654;2023-07-09T17:25:32;96485.41;;;36.65;26.13
62510;BME280;48558;48.242;11.654;2023-07-09T17:29:50;96488.28;;;36.40;27.02
62510;BME280;48558;48.242;11.654;2023-07-09T17:34:03;96496.22;;;36.79;26.88
62510;BME280;48558;48.242;11.654;2023-07-09T17:38:22;96486.06;;;36.39;25.96
62510;BME280;48558;48.242;11.654;2023-07-09T17:42:56;96480.59;;;36.31;25.94
62510;BME280;48558;48.242;11.654;2023-07-09T17:47:13;96490.38;;;35.53;28.24
62510;BME280;48558;48.242;11.654;2023-07-09T17:51:28;96493.81;;;35.74;28.32
62510;BME280;48558;48.242;11.654;2023-07-09T17:55:50;96491.00;;;34.70;28.81
62510;BME280;48558;48.242;11.654;2023-07-09T18:00:04;96495.31;;;33.40;30.49
62510;BME280;48558;48.242;11.654;2023-07-09T18:04:19;96491.66;;;32.28;34.21
62510;BME280;48558;48.242;11.654;2023-07-09T18:08:41;96476.16;;;31.36;36.19
62510;BME280;48558;48.242;11.654;2023-07-09T18:12:58;96470.63;;;30.46;38.08
62510;BME280;48558;48.242;11.654;2023-07-09T18:17:19;96490.28;;;29.81;39.80
62510;BME280;48558;48.242;11.654;2023-07-09T18:22:00;96495.13;;;29.20;40.04
62510;BME280;48558;48.242;11.654;2023-07-09T18:26:21;96494.09;;;28.83;44.43
62510;BME280;48558;48.242;11.654;2023-07-09T18:30:35;96493.31;;;28.58;46.69
62510;BME280;48558;48.242;11.654;2023-07-09T18:35:01;96500.25;;;28.07;48.74
62510;BME280;48558;48.242;11.654;2023-07-09T18:39:29;96507.34;;;27.76;47.67
62510;BME280;48558;48.242;11.654;2023-07-09T18:43:44;96494.25;;;27.11;47.83
62510;BME280;48558;48.242;11.654;2023-07-09T18:47:57;96495.78;;;26.89;50.70
62510;BME280;48558;48.242;11.654;2023-07-09T18:52:13;96494.06;;;26.71;51.17
62510;BME280;48558;48.242;11.654;2023-07-09T18:56:27;96495.72;;;26.21;53.21
62510;BME280;48558;48.242;11.654;2023-07-09T19:00:40;96491.06;;;25.95;53.51
62510;BME280;48558;48.242;11.654;2023-07-09T19:04:52;96492.63;;;25.60;55.24
62510;BME280;48558;48.242;11.654;2023-07-09T19:09:15;96507.00;;;25.34;54.43
62510;BME280;48558;48.242;11.654;2023-07-09T19:13:41;96503.75;;;25.02;55.52
62510;BME280;48558;48.242;11.654;2023-07-09T19:17:54;96504.94;;;24.65;57.46
62510;BME280;48558;48.242;11.654;2023-07-09T19:22:12;96499.78;;;24.36;58.96
62510;BME280;48558;48.242;11.654;2023-07-09T19:26:34;96502.75;;;23.96;60.81
62510;BME280;48558;48.242;11.654;2023-07-09T19:30:49;96491.53;;;23.57;60.32
62510;BME280;48558;48.242;11.654;2023-07-09T19:35:20;96495.25;;;23.39;61.09
62510;BME280;48558;48.242;11.654;2023-07-09T19:39:35;96513.03;;;23.47;62.64
62510;BME280;48558;48.242;11.654;2023-07-09T19:43:48;96524.06;;;23.19;65.23
62510;BME280;48558;48.242;11.654;2023-07-09T19:48:01;96523.00;;;23.09;64.69
62510;BME280;48558;48.242;11.654;2023-07-09T19:52:15;96524.84;;;22.93;67.48
62510;BME280;48558;48.242;11.654;2023-07-09T19:56:28;96522.09;;;22.74;67.10
62510;BME280;48558;48.242;11.654;2023-07-09T20:00:51;96518.97;;;22.59;67.15
62510;BME280;48558;48.242;11.654;2023-07-09T20:05:12;96516.75;;;22.39;68.31
62510;BME280;48558;48.242;11.654;2023-07-09T20:09:29;96520.94;;;22.33;70.13
62510;BME280;48558;48.242;11.654;2023-07-09T20:13:51;96519.69;;;22.15;71.29
62510;BME280;48558;48.242;11.654;2023-07-09T20:18:12;96514.41;;;21.93;75.27
62510;BME280;48558;48.242;11.654;2023-07-09T20:22:28;96508.91;;;21.82;74.09
62510;BME280;48558;48.242;11.654;2023-07-09T20:26:46;96525.09;;;21.57;76.35
62510;BME280;48558;48.242;11.654;2023-07-09T20:31:01;96516.25;;;21.48;74.45
62510;BME280;48558;48.242;11.654;2023-07-09T20:35:23;96517.69;;;21.35;77.75
62510;BME280;48558;48.242;11.654;2023-07-09T20:39:36;96520.16;;;21.20;80.28
62510;BME280;48558;48.242;11.654;2023-07-09T20:43:49;96506.56;;;21.00;79.83
62510;BME280;48558;48.242;11.654;2023-07-09T20:48:02;96509.72;;;20.91;82.00
62510;BME280;48558;48.242;11.654;2023-07-09T20:52:15;96509.69;;;20.67;84.13
62510;BME280;48558;48.242;11.654;2023-07-09T20:56:28;96522.81;;;20.59;85.32
62510;BME280;48558;48.242;11.654;2023-07-09T21:00:42;96518.22;;;20.56;80.60
62510;BME280;48558;48.242;11.654;2023-07-09T21:04:55;96528.03;;;20.44;83.61
62510;BME280;48558;48.242;11.654;2023-07-09T21:09:18;96517.16;;;20.35;83.66
62510;BME280;48558;48.242;11.654;2023-07-09T21:13:41;96515.09;;;20.35;85.02
62510;BME280;48558;48.242;11.654;2023-07-09T21:17:54;96522.84;;;20.18;86.49
62510;BME280;48558;48.242;11.654;2023-07-09T21:22:11;96532.63;;;20.06;88.75
62510;BME280;48558;48.242;11.654;2023-07-09T21:26:27;96524.50;;;20.02;86.32
62510;BME280;48558;48.242;11.654;2023-07-09T21:30:40;96515.75;;;19.76;87.08
62510;BME280;48558;48.242;11.654;2023-07-09T21:34:56;96546.47;;;19.93;85.12
62510;BME280;48558;48.242;11.654;2023-07-09T21:39:18;96540.41;;;19.83;85.02
62510;BME280;48558;48.242;11.654;2023-07-09T21:43:31;96555.75;;;19.77;85.02
62510;BME280;48558;48.242;11.654;2023-07-09T21:47:44;96550.19;;;19.71;86.16
62510;BME280;48558;48.242;11.654;2023-07-09T21:51:57;96551.50;;;19.59;88.20
62510;BME280;48558;48.242;11.654;2023-07-09T21:56:09;96560.97;;;19.51;88.53
62510;BME280;48558;48.242;11.654;2023-07-09T22:00:26;96553.88;;;19.44;87.67
62510;BME280;48558;48.242;11.654;2023-07-09T22:04:39;96551.31;;;19.41;87.40
62510;BME280;48558;48.242;11.654;2023-07-09T22:08:51;96549.31;;;19.36;87.21
62510;BME280;48558;48.242;11.654;2023-07-09T22:13:04;96543.44;;;19.28;87.54
62510;BME280;48558;48.242;11.654;2023-07-09T22:17:19;96551.38;;;19.18;89.30
62510;BME280;48558;48.242;11.654;2023-07-09T22:21:41;96553.69;;;19.09;90.21
62510;BME280;48558;48.242;11.654;2023-07-09T22:25:55;96555.50;;;19.01;91.09
62510;BME280;48558;48.242;11.654;2023-07-09T22:30:08;96560.59;;;18.91;92.78
62510;BME280;48558;48.242;11.654;2023-07-09T22:34:24;96549.19;;;18.78;94.22
62510;BME280;48558;48.242;11.654;2023-07-09T22:38:36;96558.34;;;18.79;94.33
62510;BME280;48558;48.242;11.654;2023-07-09T22:42:49;96553.75;;;18.76;93.75
62510;BME280;48558;48.242;11.654;2023-07-09T22:47:03;96560.91;;;18.66;95.07
62510;BME280;48558;48.242;11.654;2023-07-09T22:51:17;96548.72;;;18.52;96.14
62510;BME280;48558;48.242;11.654;2023-07-09T22:59:49;96558.63;;;18.47;96.23
62510;BME280;48558;48.242;11.654;2023-07-09T23:04:03;96557.56;;;18.39;97.33
62510;BME280;48558;48.242;11.654;2023-07-09T23:12:39;96557.81;;;18.36;98.69
62510;BME280;48558;48.242;11.654;2023-07-09T23:16:52;96545.09;;;18.13;100.00